Flight Track Log - Related Links

Times and Time Zones

All times are in EDT time to prevent confusion due to time zone crossing. See the ACA291 flight status page for this flight to view local times or setup timezone preferences in your user account.

Time Position Orientation Groundspeed Altitude Reporting Facility
EDT Latitude Longitude Course Direction KTS MPH feet Rate Location/Type
Tue 10:16:41 PM 49.1833 -123.2667 338° Northwest 170 196 1,900  Level Vancouver Center
Tue 10:17:41 PM 49.2000 -123.3333 291° West 210 242 4,000 2,150 Climbing Vancouver Center
Tue 10:18:41 PM 49.2500 -123.4167 313° West 230 265 6,200 2,350 Climbing Vancouver Center
Tue 10:19:00 PM 49.3535 -123.3601 342° North  Level FlightAware Approximate
Tue 10:19:41 PM 49.3167 -123.4333 351° North 270 311 8,700  Level Vancouver Center
Tue 10:20:00 PM 49.4545 -123.4436 333° Northwest  Level FlightAware Approximate
Tue 10:20:41 PM 49.4000 -123.4167 North 300 345 11,300  Level Vancouver Center
Tue 10:21:00 PM 49.5546 -123.5299 338° Northwest  Level FlightAware Approximate
Tue 10:21:41 PM 49.4833 -123.3833 15° North 330 380 12,800  Level Vancouver Center
Tue 10:22:00 PM 49.6613 -123.5966 338° Northwest  Level FlightAware Approximate
Tue 10:22:41 PM 49.6000 -123.3667 North 380 437 14,700  Level Vancouver Center
Tue 10:23:41 PM 49.6833 -123.4333 333° Northwest 370 426 16,700 1,950 Climbing Vancouver Center
Tue 10:24:41 PM 49.7833 -123.4833 342° North 390 449 18,600 2,000 Climbing Vancouver Center
Tue 10:25:41 PM 49.8833 -123.5667 332° Northwest 390 449 20,700 1,700 Climbing Vancouver Center
Tue 10:26:41 PM 49.9833 -123.6500 332° Northwest 400 460 22,000 1,350 Climbing Vancouver Center
Tue 10:27:41 PM 50.0833 -123.7167 337° Northwest 410 472 23,400 1,450 Climbing Vancouver Center
Tue 10:28:41 PM 50.2000 -123.8000 335° Northwest 420 483 24,900 1,450 Climbing Vancouver Center
Tue 10:29:41 PM 50.3000 -123.8833 332° Northwest 430 495 26,300 1,250 Climbing Vancouver Center
Tue 10:30:41 PM 50.4167 -123.9500 340° North 440 506 27,400 1,100 Climbing Vancouver Center
Tue 10:31:41 PM 50.5333 -124.0333 336° Northwest 440 506 28,500 1,150 Climbing Vancouver Center
Tue 10:32:41 PM 50.6333 -124.1167 332° Northwest 450 518 29,700 750 Climbing Vancouver Center
Tue 10:33:41 PM 50.7500 -124.2167 332° Northwest 450 518 30,000 150 Climbing Vancouver Center
Tue 10:34:41 PM 50.8667 -124.3000 336° Northwest 440 506 30,000  Level Vancouver Center
Tue 10:35:41 PM 50.9833 -124.3833 336° Northwest 450 518 30,000  Level Vancouver Center
Tue 10:36:41 PM 51.0833 -124.4667 332° Northwest 440 506 30,000  Level Vancouver Center
Tue 10:37:41 PM 51.2000 -124.5500 336° Northwest 440 506 30,000  Level Vancouver Center
Tue 10:38:41 PM 51.3000 -124.6333 332° Northwest 440 506 30,000  Level Vancouver Center
Tue 10:39:41 PM 51.4167 -124.7167 336° Northwest 440 506 30,000  Level Vancouver Center
Tue 10:40:41 PM 51.5333 -124.7833 340° North 440 506 30,000  Level Vancouver Center
Tue 10:41:41 PM 51.6333 -124.8667 333° Northwest 430 495 30,000  Level Vancouver Center
Tue 10:42:41 PM 51.7500 -124.9500 336° Northwest 440 506 30,000  Level Vancouver Center
Tue 10:43:41 PM 51.8500 -125.0333 333° Northwest 440 506 30,000  Level Vancouver Center
Tue 10:44:41 PM 51.9667 -125.1333 332° Northwest 440 506 30,000  Level Vancouver Center
Tue 10:45:41 PM 52.0833 -125.2167 336° Northwest 440 506 30,000  Level Vancouver Center
Tue 10:46:41 PM 52.2000 -125.3167 332° Northwest 430 495 30,000  Level Vancouver Center
Tue 10:47:41 PM 52.3000 -125.4167 329° Northwest 430 495 30,000  Level Vancouver Center
Tue 10:48:41 PM 52.4000 -125.4667 343° North 430 495 30,000  Level Vancouver Center
Tue 10:49:41 PM 52.5167 -125.5833 329° Northwest 440 506 30,000  Level Vancouver Center
Tue 10:50:41 PM 52.6167 -125.6667 333° Northwest 430 495 30,000  Level Vancouver Center
Tue 10:51:41 PM 52.7333 -125.7500 337° Northwest 430 495 30,000  Level Vancouver Center
Tue 10:52:41 PM 52.8500 -125.8500 333° Northwest 440 506 30,000  Level Vancouver Center
Tue 10:53:41 PM 52.9500 -125.9333 333° Northwest 430 495 30,000  Level Vancouver Center
Tue 10:54:41 PM 53.0500 -126.0167 333° Northwest 430 495 30,000  Level Vancouver Center
Tue 10:55:41 PM 53.1500 -126.1000 333° Northwest 430 495 30,000  Level Vancouver Center
Tue 10:56:41 PM 53.2667 -126.2000 333° Northwest 430 495 30,000  Level Vancouver Center
Tue 10:57:41 PM 53.3667 -126.2833 334° Northwest 430 495 30,000  Level Vancouver Center
Tue 10:58:41 PM 53.4833 -126.3833 333° Northwest 430 495 30,000  Level Vancouver Center
Tue 10:59:41 PM 53.5833 -126.4667 334° Northwest 430 495 30,000  Level Vancouver Center
Tue 11:00:41 PM 53.6833 -126.5667 329° Northwest 430 495 30,000  Level Vancouver Center
Tue 11:01:41 PM 53.8000 -126.6500 337° Northwest 430 495 30,000  Level Vancouver Center
Tue 11:02:41 PM 53.9000 -126.7500 330° Northwest 420 483 30,000  Level Vancouver Center
Tue 11:03:41 PM 54.0167 -126.8333 337° Northwest 430 495 30,000  Level Vancouver Center
Tue 11:04:41 PM 54.1000 -126.9333 325° Northwest 430 495 30,000  Level Vancouver Center
Tue 11:05:41 PM 54.2167 -127.0167 337° Northwest 420 483 30,000  Level Vancouver Center
Tue 11:06:41 PM 54.3167 -127.1167 330° Northwest 430 495 30,000  Level Vancouver Center
Tue 11:07:41 PM 54.4333 -127.2167 334° Northwest 420 483 30,000  Level Vancouver Center
Tue 11:08:41 PM 54.5333 -127.3000 334° Northwest 420 483 30,000  Level Vancouver Center
Tue 11:09:41 PM 54.6333 -127.4000 330° Northwest 420 483 30,000  Level Vancouver Center
Tue 11:10:41 PM 54.7500 -127.5000 334° Northwest 430 495 30,000  Level Vancouver Center
Tue 11:11:41 PM 54.8500 -127.6000 330° Northwest 440 506 30,000  Level Vancouver Center
Tue 11:12:41 PM 54.9500 -127.6833 334° Northwest 440 506 30,000  Level Vancouver Center
Tue 11:13:41 PM 55.0667 -127.7833 334° Northwest 430 495 30,000  Level Vancouver Center
Tue 11:14:41 PM 55.1667 -127.8833 330° Northwest 430 495 30,000  Level Vancouver Center
Tue 11:15:42 PM 55.2833 -127.9833 334° Northwest 430 495 30,000  Level Vancouver Center
Tue 11:16:42 PM 55.3667 -128.0833 326° Northwest 430 495 30,000  Level Vancouver Center
Tue 11:17:42 PM 55.4833 -128.1833 334° Northwest 430 495 30,000  Level Vancouver Center
Tue 11:18:42 PM 55.5833 -128.2833 331° Northwest 430 495 30,000  Level Vancouver Center
Tue 11:19:42 PM 55.7000 -128.3833 334° Northwest 430 495 30,000  Level Vancouver Center
Tue 11:20:42 PM 55.8000 -128.4833 331° Northwest 430 495 30,000  Level Vancouver Center
Tue 11:21:42 PM 55.9000 -128.5833 331° Northwest 430 495 30,000  Level Vancouver Center
Tue 11:22:42 PM 56.0000 -128.6833 331° Northwest 430 495 30,000  Level Vancouver Center
Tue 11:23:42 PM 56.1167 -128.7833 334° Northwest 430 495 30,000  Level Vancouver Center
Tue 11:24:42 PM 56.2167 -128.9167 323° Northwest 430 495 30,000  Level Vancouver Center
Tue 11:25:42 PM 56.3333 -129.0000 338° Northwest 430 495 30,000  Level Vancouver Center
Tue 11:26:42 PM 56.4167 -129.1333 319° Northwest 430 495 30,000  Level Vancouver Center
Tue 11:27:42 PM 56.5333 -129.2000 343° North 430 495 30,000  Level Vancouver Center
Tue 11:28:42 PM 56.6500 -129.3500 325° Northwest 420 483 30,000  Level Vancouver Center
Tue 11:29:42 PM 56.7333 -129.4500 327° Northwest 420 483 30,000  Level Vancouver Center
Tue 11:30:42 PM 56.8333 -129.5500 331° Northwest 430 495 30,000  Level Vancouver Center
Tue 11:31:41 PM 56.9333 -129.6833 324° Northwest 340 391 30,000  Level Vancouver Center
Tue 11:33:00 PM 57.0549 -129.8338 326° Northwest  Level FlightAware Approximate
Tue 11:33:28 PM 57.1000 -129.9000 326° Northwest 410 472 30,000  Level Vancouver Center
Tue 11:35:00 PM 57.2419 -130.0751 326° Northwest  Level FlightAware Approximate
Tue 11:42:00 PM 57.8800 -130.9102 324° Northwest  Level FlightAware Approximate
Tue 11:43:00 PM 57.9691 -131.0358 323° Northwest  Level FlightAware Approximate
Tue 11:44:00 PM 58.0581 -131.1620 323° Northwest  Level FlightAware Approximate
Tue 11:45:00 PM 58.1470 -131.2889 323° Northwest  Level FlightAware Approximate
Tue 11:46:00 PM 58.2358 -131.4164 323° Northwest  Level FlightAware Approximate
Tue 11:47:00 PM 58.3245 -131.5444 324° Northwest  Level FlightAware Approximate
Tue 11:48:00 PM 58.4141 -131.6706 324° Northwest  Level FlightAware Approximate
Tue 11:49:00 PM 58.5034 -131.7975 323° Northwest  Level FlightAware Approximate
Tue 11:50:00 PM 58.5927 -131.9250 323° Northwest  Level FlightAware Approximate
Tue 11:51:00 PM 58.6814 -132.0544 322° Northwest  Level FlightAware Approximate
Tue 11:52:00 PM 58.7696 -132.1854 322° Northwest  Level FlightAware Approximate
Tue 11:53:00 PM 58.8576 -132.3171 322° Northwest  Level FlightAware Approximate
Tue 11:54:00 PM 58.9455 -132.4494 322° Northwest  Level FlightAware Approximate
Tue 11:55:00 PM 59.0332 -132.5824 322° Northwest  Level FlightAware Approximate
Tue 11:56:00 PM 59.1204 -132.7172 321° Northwest  Level FlightAware Approximate
Tue 11:57:00 PM 59.2072 -132.8533 321° Northwest  Level FlightAware Approximate
Tue 11:58:00 PM 59.2938 -132.9902 321° Northwest  Level FlightAware Approximate
Tue 11:59:00 PM 59.3815 -133.1246 320° Northwest  Level FlightAware Approximate
Wed 12:00:00 AM 59.4681 -133.2620 322° Northwest  Level FlightAware Approximate
Wed 12:01:00 AM 59.5559 -133.3970 322° Northwest  Level FlightAware Approximate
Wed 12:02:00 AM 59.6434 -133.5331 321° Northwest  Level FlightAware Approximate
Wed 12:03:00 AM 59.7294 -133.6733 321° Northwest  Level FlightAware Approximate
Wed 12:04:00 AM 59.8152 -133.8142 320° Northwest  Level FlightAware Approximate
Wed 12:05:00 AM 59.9018 -133.9535 321° Northwest  Level FlightAware Approximate
Wed 12:06:00 AM 59.9883 -134.0934 321° Northwest  Level FlightAware Approximate
Wed 12:07:00 AM 60.0739 -134.2360 320° Northwest  Level FlightAware Approximate
Wed 12:08:00 AM 60.1590 -134.3801 323° Northwest  Level FlightAware Approximate
Wed 12:09:00 AM 60.2483 -134.5139 323° Northwest  Level FlightAware Approximate
Wed 12:10:00 AM 60.3352 -134.6543 320° Northwest  Level FlightAware Approximate
Wed 12:11:00 AM 60.4204 -134.7993 320° Northwest  Level FlightAware Approximate
Wed 12:12:00 AM 60.5067 -134.9419 321° Northwest  Level FlightAware Approximate
Wed 12:13:00 AM 60.5833 -135.0935 270° West  Level FlightAware Approximate
Wed 12:14:00 AM 60.6822 -135.0785 18° North  Level FlightAware Approximate
Wed 12:15:00 AM 60.7000 -135.0667 18° North  Level FlightAware Approximate
Wed 12:16:00 AM 60.7095 -135.0673 18° North  Level Estimated
Wed 12:17:00 AM 60.7095 -135.0673 18° North  Level Estimated
Wed 12:18:00 AM 60.7095 -135.0673 18° North  Level Estimated
Wed 12:19:00 AM 60.7095 -135.0673 18° North  Level Estimated
Wed 12:20:00 AM 60.7095 -135.0673 18° North  Level Estimated
Wed 12:21:00 AM 60.7095 -135.0673 18° North  Level Estimated
Wed 12:22:00 AM 60.7095 -135.0673 18° North  Level Estimated
Wed 12:23:00 AM 60.7095 -135.0673 18° North  Level Estimated
Wed 12:24:00 AM 60.7095 -135.0673 18° North  Level Estimated

Login

Don't have an account? Register now (free) for customized features, flight alerts, and more!